Time;durP1;ratioP1;P1;durP2;ratioP2;P2;SDS_P1;SDS_P2;PMS_P1;PMS_P2;Temp;Humidity;BMP_temperature;BMP_pressure;BME280_temperature;BME280_humidity;BME280_pressure;Samples;Min_cycle;Max_cycle;Signal;HPM_P1;HPM_P2
2021/06/04 00:01:05;;;;;;;7.20;6.40;;;;;;;;;;5017812;28;20041;-40
2021/06/04 00:03:31;;;;;;;8.45;6.18;;;;;;;;;;5016148;28;20034;-39
2021/06/04 00:05:56;;;;;;;10.30;6.80;;;;;;;;;;5017345;28;20041;-39
2021/06/04 00:08:22;;;;;;;11.18;7.00;;;;;;;;;;5015171;28;20734;-39
2021/06/04 00:10:50;;;;;;;16.27;6.53;;;;;;;;;;5018453;28;20108;-42
2021/06/04 00:13:18;;;;;;;7.95;6.88;;;;;;;;;;5014289;28;20038;-38
2021/06/04 00:15:44;;;;;;;8.07;7.25;;;;;;;;;;5017220;28;20121;-39
2021/06/04 00:18:10;;;;;;;17.02;6.30;;;;;;;;;;5019377;28;20654;-38
2021/06/04 00:20:35;;;;;;;8.02;6.30;;;;;;;;;;5019548;28;20395;-39
2021/06/04 00:23:00;;;;;;;6.75;5.80;;;;;;;;;;5016029;28;20598;-38
2021/06/04 00:25:26;;;;;;;14.00;6.45;;;;;;;;;;5018331;28;20030;-38
2021/06/04 00:27:51;;;;;;;16.27;6.95;;;;;;;;;;5016126;28;20530;-40
2021/06/04 00:30:17;;;;;;;12.02;7.55;;;;;;;;;;5014851;28;20095;-39
2021/06/04 00:32:42;;;;;;;15.82;6.95;;;;;;;;;;5017902;28;20034;-41
2021/06/04 00:35:09;;;;;;;10.55;6.80;;;;;;;;;;5017141;28;20026;-39
2021/06/04 00:37:35;;;;;;;10.38;6.05;;;;;;;;;;5013878;28;20038;-39
2021/06/04 00:40:00;;;;;;;11.95;7.28;;;;;;;;;;5014711;28;20031;-39
2021/06/04 00:42:30;;;;;;;11.90;6.53;;;;;;;;;;5019696;28;20061;-39
2021/06/04 00:44:56;;;;;;;9.25;5.90;;;;;;;;;;5021477;28;20084;-39
2021/06/04 00:47:22;;;;;;;12.55;7.53;;;;;;;;;;5020018;28;20076;-38
2021/06/04 00:49:49;;;;;;;10.05;7.15;;;;;;;;;;5021896;28;20026;-38
2021/06/04 00:52:21;;;;;;;8.60;6.55;;;;;;;;;;5019942;28;20038;-38
2021/06/04 00:54:47;;;;;;;9.10;6.43;;;;;;;;;;5018591;28;20044;-39
2021/06/04 00:57:12;;;;;;;12.77;6.15;;;;;;;;;;5020227;28;20475;-39
2021/06/04 00:59:39;;;;;;;10.40;6.25;;;;;;;;;;5016812;28;20042;-38
2021/06/04 01:02:16;;;;;;;21.83;6.43;;;;;;;;;;5014301;28;20100;-37
2021/06/04 01:04:42;;;;;;;10.70;8.43;;;;;;;;;;5020733;28;20221;-37
2021/06/04 01:07:10;;;;;;;6.18;5.57;;;;;;;;;;5019504;28;20139;-37
2021/06/04 01:09:35;;;;;;;12.88;6.70;;;;;;;;;;5019449;28;20033;-37
2021/06/04 01:12:07;;;;;;;8.88;7.40;;;;;;;;;;5018596;28;20477;-38
2021/06/04 01:14:41;;;;;;;9.07;5.47;;;;;;;;;;5019586;28;20712;-38
2021/06/04 01:17:10;;;;;;;12.00;6.85;;;;;;;;;;5020359;28;20543;-38
2021/06/04 01:19:35;;;;;;;9.55;6.00;;;;;;;;;;5020843;28;20030;-38
2021/06/04 01:22:03;;;;;;;9.13;6.28;;;;;;;;;;5017285;28;20026;-38
2021/06/04 01:24:48;;;;;;;9.30;5.65;;;;;;;;;;5022159;28;20083;-38
2021/06/04 01:27:16;;;;;;;10.80;6.15;;;;;;;;;;5018530;28;20034;-38
2021/06/04 01:29:43;;;;;;;13.10;7.00;;;;;;;;;;5021952;28;20033;-39
2021/06/04 01:32:14;;;;;;;9.98;7.68;;;;;;;;;;5022233;28;20031;-38
2021/06/04 01:34:41;;;;;;;9.35;8.10;;;;;;;;;;5018845;28;20030;-38
2021/06/04 01:37:33;;;;;;;11.25;7.53;;;;;;;;;;5018097;28;20104;-38
2021/06/04 01:40:00;;;;;;;13.80;9.07;;;;;;;;;;5013363;28;20483;-38
2021/06/04 01:42:30;;;;;;;11.32;7.53;;;;;;;;;;5019292;28;20552;-38
2021/06/04 01:45:03;;;;;;;17.27;6.20;;;;;;;;;;5018652;28;20095;-38
2021/06/04 01:47:31;;;;;;;11.45;6.72;;;;;;;;;;5017292;28;20401;-38
2021/06/04 01:49:58;;;;;;;18.92;7.15;;;;;;;;;;5017945;28;20026;-39
2021/06/04 01:52:28;;;;;;;13.90;7.72;;;;;;;;;;5017493;28;20048;-38
2021/06/04 01:54:59;;;;;;;19.27;6.82;;;;;;;;;;5016897;28;20503;-38
2021/06/04 01:57:24;;;;;;;8.60;6.18;;;;;;;;;;5017815;28;20069;-38
2021/06/04 01:59:52;;;;;;;8.80;7.07;;;;;;;;;;5020081;28;20084;-38
2021/06/04 02:02:18;;;;;;;9.23;6.00;;;;;;;;;;5019854;28;20041;-38
2021/06/04 02:04:45;;;;;;;14.38;7.47;;;;;;;;;;5019860;28;20499;-38
2021/06/04 02:07:13;;;;;;;9.02;6.50;;;;;;;;;;5018985;28;20583;-38
2021/06/04 02:09:38;;;;;;;6.72;5.15;;;;;;;;;;5020926;28;20041;-38
2021/06/04 02:12:05;;;;;;;13.98;5.63;;;;;;;;;;5018979;28;20489;-38
2021/06/04 02:14:42;;;;;;;10.88;7.43;;;;;;;;;;5016903;28;20091;-38
2021/06/04 02:17:14;;;;;;;10.65;5.90;;;;;;;;;;5018609;28;20026;-38
2021/06/04 02:20:05;;;;;;;7.22;6.22;;;;;;;;;;5017270;28;20025;-38
2021/06/04 02:22:55;;;;;;;10.65;5.32;;;;;;;;;;5019089;28;20077;-38
2021/06/04 02:25:39;;;;;;;11.85;8.95;;;;;;;;;;5001666;28;20040;-38
2021/06/04 02:28:08;;;;;;;20.70;5.68;;;;;;;;;;5015674;28;20034;-38
2021/06/04 02:30:36;;;;;;;11.30;5.82;;;;;;;;;;5016527;28;20041;-37
2021/06/04 02:33:10;;;;;;;32.97;7.57;;;;;;;;;;5015690;28;20061;-38
2021/06/04 02:35:44;;;;;;;8.18;6.18;;;;;;;;;;5014930;28;20038;-38
2021/06/04 02:38:11;;;;;;;15.00;7.60;;;;;;;;;;5013578;28;20483;-38
2021/06/04 02:40:39;;;;;;;13.93;7.13;;;;;;;;;;5019935;28;20120;-38
2021/06/04 02:43:10;;;;;;;11.60;6.70;;;;;;;;;;5019311;28;20030;-38
2021/06/04 02:45:38;;;;;;;9.45;6.15;;;;;;;;;;5017885;28;20103;-38
2021/06/04 02:48:12;;;;;;;8.13;5.80;;;;;;;;;;5015023;28;20475;-38
2021/06/04 02:50:40;;;;;;;13.02;6.55;;;;;;;;;;5017278;28;20164;-38
2021/06/04 02:53:24;;;;;;;8.50;6.15;;;;;;;;;;5017824;28;20040;-38
2021/06/04 02:56:10;;;;;;;12.75;5.30;;;;;;;;;;5016791;28;20030;-38
2021/06/04 02:58:36;;;;;;;12.60;6.85;;;;;;;;;;5019650;28;20687;-38
2021/06/04 03:01:02;;;;;;;9.20;6.07;;;;;;;;;;5018726;28;20056;-38
2021/06/04 03:03:28;;;;;;;8.45;6.07;;;;;;;;;;5018140;28;20060;-38
2021/06/04 03:05:53;;;;;;;13.60;6.20;;;;;;;;;;5020630;28;20442;-38
2021/06/04 03:08:21;;;;;;;6.88;5.70;;;;;;;;;;5015983;28;20034;-38
2021/06/04 03:10:48;;;;;;;15.27;6.10;;;;;;;;;;5019847;28;20029;-38
2021/06/04 03:13:15;;;;;;;8.88;5.22;;;;;;;;;;5019053;28;20063;-38
2021/06/04 03:15:43;;;;;;;19.40;7.03;;;;;;;;;;5020096;28;20037;-38
2021/06/04 03:18:11;;;;;;;6.85;6.10;;;;;;;;;;5018013;28;20095;-38
2021/06/04 03:20:40;;;;;;;12.32;7.95;;;;;;;;;;5017038;28;20041;-39
2021/06/04 03:23:06;;;;;;;15.85;8.48;;;;;;;;;;5016234;28;20117;-38
2021/06/04 03:25:40;;;;;;;13.20;6.47;;;;;;;;;;5020737;28;20021;-40
2021/06/04 03:28:07;;;;;;;12.02;7.60;;;;;;;;;;5017452;28;20025;-39
2021/06/04 03:30:34;;;;;;;13.18;8.20;;;;;;;;;;5019170;28;20036;-39
2021/06/04 03:33:00;;;;;;;11.00;6.55;;;;;;;;;;5020318;28;20021;-38
2021/06/04 03:35:25;;;;;;;7.10;5.60;;;;;;;;;;4999421;28;20037;-38
2021/06/04 03:37:51;;;;;;;16.50;8.27;;;;;;;;;;5014758;28;20692;-39
2021/06/04 03:40:17;;;;;;;8.45;6.35;;;;;;;;;;5019021;28;20037;-38
2021/06/04 03:42:43;;;;;;;9.73;6.18;;;;;;;;;;5016355;28;20069;-39
2021/06/04 03:45:10;;;;;;;18.15;8.23;;;;;;;;;;5020028;28;20079;-38
2021/06/04 03:47:35;;;;;;;17.13;7.40;;;;;;;;;;5018988;28;20034;-38
2021/06/04 03:50:01;;;;;;;15.18;7.18;;;;;;;;;;5016864;28;20418;-38
2021/06/04 03:52:26;;;;;;;7.18;5.50;;;;;;;;;;5018065;28;20399;-38
2021/06/04 03:54:54;;;;;;;8.30;6.65;;;;;;;;;;5018736;28;20395;-38
2021/06/04 03:57:22;;;;;;;12.45;6.78;;;;;;;;;;5018449;28;20044;-38
2021/06/04 03:59:48;;;;;;;10.63;7.10;;;;;;;;;;5018249;28;20034;-38
2021/06/04 04:02:16;;;;;;;12.68;7.90;;;;;;;;;;5014683;28;20080;-38
2021/06/04 04:04:41;;;;;;;9.13;7.78;;;;;;;;;;5007876;28;20070;-38
2021/06/04 04:07:07;;;;;;;15.52;7.32;;;;;;;;;;5017190;28;20022;-39
2021/06/04 04:09:32;;;;;;;11.38;6.80;;;;;;;;;;5016259;28;20041;-41
2021/06/04 04:11:58;;;;;;;7.47;6.03;;;;;;;;;;5017019;28;20636;-39
2021/06/04 04:14:23;;;;;;;9.68;6.68;;;;;;;;;;5020268;28;20120;-38
2021/06/04 04:16:49;;;;;;;21.48;7.95;;;;;;;;;;5019795;28;20394;-38
2021/06/04 04:19:14;;;;;;;18.00;7.15;;;;;;;;;;5022629;28;20057;-38
2021/06/04 04:21:40;;;;;;;9.65;7.15;;;;;;;;;;5017629;28;20410;-39
2021/06/04 04:24:10;;;;;;;11.90;6.20;;;;;;;;;;5019081;28;20087;-38
2021/06/04 04:26:37;;;;;;;7.30;5.07;;;;;;;;;;5018570;28;20564;-38
2021/06/04 04:29:03;;;;;;;12.52;8.55;;;;;;;;;;5021970;28;20065;-39
2021/06/04 04:31:30;;;;;;;24.08;8.50;;;;;;;;;;5021415;28;20076;-38
2021/06/04 04:33:56;;;;;;;15.70;7.50;;;;;;;;;;5020697;28;20045;-38
2021/06/04 04:36:27;;;;;;;8.32;7.45;;;;;;;;;;5023610;28;20022;-38
2021/06/04 04:38:53;;;;;;;15.65;8.02;;;;;;;;;;5016644;28;20450;-38
2021/06/04 04:41:18;;;;;;;15.27;9.05;;;;;;;;;;5013674;28;20044;-39
2021/06/04 04:43:45;;;;;;;13.35;9.02;;;;;;;;;;5017162;28;20038;-38
2021/06/04 04:46:11;;;;;;;22.70;8.25;;;;;;;;;;5018187;28;20029;-38
2021/06/04 04:48:36;;;;;;;14.82;8.70;;;;;;;;;;5016726;28;20037;-38
2021/06/04 04:51:03;;;;;;;12.38;8.40;;;;;;;;;;5018432;28;20088;-38
2021/06/04 04:53:28;;;;;;;7.25;6.43;;;;;;;;;;5016423;28;20030;-39
2021/06/04 04:55:54;;;;;;;8.63;7.07;;;;;;;;;;5019254;28;20037;-38
2021/06/04 04:58:19;;;;;;;8.50;6.70;;;;;;;;;;5018486;28;20145;-38
2021/06/04 05:00:45;;;;;;;9.98;6.43;;;;;;;;;;5021486;28;20036;-38
2021/06/04 05:03:12;;;;;;;9.55;7.72;;;;;;;;;;5017543;28;20054;-38
2021/06/04 05:05:38;;;;;;;17.20;10.70;;;;;;;;;;5018371;28;20136;-39
2021/06/04 05:08:03;;;;;;;12.27;7.60;;;;;;;;;;5020522;28;20483;-38
2021/06/04 05:10:29;;;;;;;12.63;8.05;;;;;;;;;;5020658;28;20407;-38
2021/06/04 05:12:55;;;;;;;8.65;6.65;;;;;;;;;;5013805;28;21260;-38
2021/06/04 05:15:23;;;;;;;10.00;6.03;;;;;;;;;;5018246;28;20029;-38
2021/06/04 05:17:49;;;;;;;12.13;10.95;;;;;;;;;;5014193;28;20111;-38
2021/06/04 05:20:15;;;;;;;14.13;8.75;;;;;;;;;;5019428;28;20034;-38
2021/06/04 05:22:41;;;;;;;19.33;7.25;;;;;;;;;;5015112;28;20041;-38
2021/06/04 05:25:11;;;;;;;12.07;7.35;;;;;;;;;;5012116;28;20029;-41
2021/06/04 05:27:36;;;;;;;15.70;12.18;;;;;;;;;;5013490;28;20086;-38
2021/06/04 05:30:03;;;;;;;11.43;7.07;;;;;;;;;;5013360;28;20037;-38
2021/06/04 05:32:29;;;;;;;13.40;9.25;;;;;;;;;;5014972;28;20834;-39
2021/06/04 05:34:54;;;;;;;13.85;6.72;;;;;;;;;;5017476;28;20034;-38
2021/06/04 05:37:20;;;;;;;8.88;6.32;;;;;;;;;;5015159;28;20087;-38
2021/06/04 05:39:45;;;;;;;8.52;6.57;;;;;;;;;;5029391;28;20041;-39
2021/06/04 05:42:10;;;;;;;12.10;6.57;;;;;;;;;;5016175;28;20044;-39
2021/06/04 05:44:37;;;;;;;5.20;4.32;;;;;;;;;;5000319;28;20482;-39
2021/06/04 05:47:04;;;;;;;12.50;8.13;;;;;;;;;;5016379;28;20030;-38
2021/06/04 05:49:29;;;;;;;6.85;5.55;;;;;;;;;;5017794;28;20052;-37
2021/06/04 05:51:56;;;;;;;23.13;5.72;;;;;;;;;;5016622;28;20065;-38
2021/06/04 05:54:22;;;;;;;10.88;6.07;;;;;;;;;;5017358;28;20029;-38
2021/06/04 05:56:48;;;;;;;12.23;7.38;;;;;;;;;;5020117;28;20045;-38
2021/06/04 05:59:15;;;;;;;12.60;6.25;;;;;;;;;;5018556;28;20025;-38
2021/06/04 06:01:41;;;;;;;18.20;7.55;;;;;;;;;;5015058;28;20037;-38
2021/06/04 06:04:06;;;;;;;9.15;6.85;;;;;;;;;;5018078;28;20495;-39
2021/06/04 06:06:33;;;;;;;22.45;6.30;;;;;;;;;;5013654;28;20058;-38
2021/06/04 06:08:58;;;;;;;22.33;8.40;;;;;;;;;;5017818;28;20308;-40
2021/06/04 06:11:25;;;;;;;34.17;8.45;;;;;;;;;;5018381;28;20486;-39
2021/06/04 06:13:53;;;;;;;21.05;15.55;;;;;;;;;;5018567;28;20594;-40
2021/06/04 06:16:20;;;;;;;14.95;9.48;;;;;;;;;;5019591;28;20037;-39
2021/06/04 06:18:45;;;;;;;18.27;8.40;;;;;;;;;;5017565;28;20538;-39
2021/06/04 06:21:11;;;;;;;17.05;9.02;;;;;;;;;;5016706;28;20070;-39
2021/06/04 06:23:37;;;;;;;21.38;8.82;;;;;;;;;;5018947;28;20083;-39
2021/06/04 06:26:04;;;;;;;16.98;11.98;;;;;;;;;;5017035;28;20017;-39
2021/06/04 06:28:33;;;;;;;17.70;11.00;;;;;;;;;;5017262;28;20388;-39
2021/06/04 06:30:59;;;;;;;30.92;12.40;;;;;;;;;;5019185;28;20536;-39
2021/06/04 06:33:25;;;;;;;38.20;30.80;;;;;;;;;;5016284;28;20475;-39
2021/06/04 06:35:50;;;;;;;32.90;25.40;;;;;;;;;;5015220;28;20034;-39
2021/06/04 06:38:16;;;;;;;25.08;20.33;;;;;;;;;;5016700;28;20122;-39
2021/06/04 06:40:42;;;;;;;24.50;21.98;;;;;;;;;;5016400;28;20511;-39
2021/06/04 06:43:08;;;;;;;22.58;19.33;;;;;;;;;;5018647;28;20037;-39
2021/06/04 06:45:33;;;;;;;21.25;17.95;;;;;;;;;;5020559;28;20075;-39
2021/06/04 06:47:59;;;;;;;21.52;14.77;;;;;;;;;;5016164;28;20039;-39
2021/06/04 06:50:28;;;;;;;11.88;10.65;;;;;;;;;;5015993;28;20025;-41
2021/06/04 06:52:53;;;;;;;22.52;11.05;;;;;;;;;;5020484;28;20034;-41
2021/06/04 06:55:18;;;;;;;21.35;10.63;;;;;;;;;;5017626;28;20479;-41
2021/06/04 06:57:44;;;;;;;14.90;11.02;;;;;;;;;;5017149;28;20029;-38
2021/06/04 07:00:19;;;;;;;29.35;20.88;;;;;;;;;;5019142;28;20140;-40
2021/06/04 07:02:45;;;;;;;20.38;14.35;;;;;;;;;;5018120;28;20097;-42
2021/06/04 07:05:11;;;;;;;24.80;21.10;;;;;;;;;;5012315;28;20540;-39
2021/06/04 07:07:39;;;;;;;22.75;19.63;;;;;;;;;;5019615;28;20093;-39
2021/06/04 07:10:05;;;;;;;31.52;22.00;;;;;;;;;;5012935;28;20076;-40
2021/06/04 07:12:31;;;;;;;16.77;11.52;;;;;;;;;;5012908;28;20432;-41
2021/06/04 07:14:56;;;;;;;24.63;10.55;;;;;;;;;;5015682;28;20114;-39
2021/06/04 07:17:23;;;;;;;19.70;9.82;;;;;;;;;;5013889;28;20084;-39
2021/06/04 07:19:49;;;;;;;19.85;8.52;;;;;;;;;;5015639;28;20068;-40
2021/06/04 07:22:14;;;;;;;12.00;6.65;;;;;;;;;;5016592;28;20051;-39
2021/06/04 07:24:39;;;;;;;14.00;9.45;;;;;;;;;;5013391;28;20033;-40
2021/06/04 07:27:05;;;;;;;24.95;11.00;;;;;;;;;;5018626;28;20057;-38
2021/06/04 07:29:31;;;;;;;28.25;17.60;;;;;;;;;;5021145;28;20084;-39
2021/06/04 07:31:56;;;;;;;21.10;12.85;;;;;;;;;;5017459;28;20116;-39
2021/06/04 07:34:23;;;;;;;23.27;14.05;;;;;;;;;;5016050;28;20076;-39
2021/06/04 07:36:49;;;;;;;18.02;14.35;;;;;;;;;;5015575;28;20503;-39
2021/06/04 07:39:26;;;;;;;23.88;14.85;;;;;;;;;;5013156;28;20041;-41
2021/06/04 07:41:51;;;;;;;23.73;14.65;;;;;;;;;;5014657;28;20549;-39
2021/06/04 07:44:17;;;;;;;15.32;11.05;;;;;;;;;;5015996;28;20030;-40
2021/06/04 07:46:44;;;;;;;21.92;9.63;;;;;;;;;;5011138;28;20026;-38
2021/06/04 07:49:10;;;;;;;11.32;8.20;;;;;;;;;;5019238;28;20034;-39
2021/06/04 07:51:37;;;;;;;14.13;11.50;;;;;;;;;;5018638;28;20099;-40
2021/06/04 07:54:03;;;;;;;20.40;11.48;;;;;;;;;;5014859;28;20037;-40
2021/06/04 07:56:28;;;;;;;25.27;11.15;;;;;;;;;;5014761;28;20495;-42
2021/06/04 07:58:54;;;;;;;20.05;9.95;;;;;;;;;;5018785;28;20049;-42
2021/06/04 08:01:20;;;;;;;29.83;13.70;;;;;;;;;;5015154;28;20111;-40
2021/06/04 08:03:45;;;;;;;15.73;8.88;;;;;;;;;;5014581;28;20187;-40
2021/06/04 08:06:12;;;;;;;10.73;8.85;;;;;;;;;;5017325;28;20489;-40
2021/06/04 08:08:37;;;;;;;19.98;11.25;;;;;;;;;;5026023;28;20206;-36
2021/06/04 08:11:05;;;;;;;13.88;8.95;;;;;;;;;;5022439;28;20030;-37
2021/06/04 08:13:30;;;;;;;19.98;8.40;;;;;;;;;;5001138;28;20040;-36
2021/06/04 08:15:59;;;;;;;23.00;10.02;;;;;;;;;;5021471;28;20025;-35
2021/06/04 08:18:26;;;;;;;18.23;8.70;;;;;;;;;;5018613;28;20413;-39
2021/06/04 08:20:51;;;;;;;32.38;19.50;;;;;;;;;;5020429;28;20040;-36
2021/06/04 08:23:18;;;;;;;26.83;18.20;;;;;;;;;;5014333;28;20029;-35
2021/06/04 08:25:47;;;;;;;34.05;20.58;;;;;;;;;;5017294;28;20030;-35
2021/06/04 08:28:14;;;;;;;25.95;20.08;;;;;;;;;;5016871;28;20034;-36
2021/06/04 08:30:39;;;;;;;76.05;55.78;;;;;;;;;;5017729;28;20160;-36
2021/06/04 08:33:05;;;;;;;20.08;16.77;;;;;;;;;;5014739;28;20117;-36
2021/06/04 08:35:31;;;;;;;12.38;8.80;;;;;;;;;;5017464;28;20398;-36
2021/06/04 08:37:57;;;;;;;25.95;12.80;;;;;;;;;;5016478;28;20404;-36
2021/06/04 08:40:25;;;;;;;5.15;4.13;;;;;;;;;;5016555;28;20030;-37
2021/06/04 08:43:29;;;;;;;12.00;8.68;;;;;;;;;;5016688;28;20131;-36
2021/06/04 08:46:00;;;;;;;10.90;8.18;;;;;;;;;;4974349;28;20771;-36
2021/06/04 08:48:40;;;;;;;26.33;11.60;;;;;;;;;;4979099;28;20030;-36
2021/06/04 08:51:11;;;;;;;17.05;8.95;;;;;;;;;;5002033;28;20038;-36
2021/06/04 08:53:36;;;;;;;11.75;7.07;;;;;;;;;;5017764;28;20521;-34
2021/06/04 08:56:04;;;;;;;22.10;9.57;;;;;;;;;;5015987;28;20042;-34
2021/06/04 08:58:39;;;;;;;9.75;4.88;;;;;;;;;;5018951;28;20573;-35
2021/06/04 09:01:09;;;;;;;18.65;8.63;;;;;;;;;;5016008;28;20533;-36
2021/06/04 09:03:37;;;;;;;13.77;7.07;;;;;;;;;;5017204;28;20510;-36
2021/06/04 09:06:05;;;;;;;12.13;7.50;;;;;;;;;;5019281;28;20033;-35
2021/06/04 09:08:32;;;;;;;22.52;7.53;;;;;;;;;;5020654;28;20034;-36
2021/06/04 09:11:04;;;;;;;7.00;4.97;;;;;;;;;;5019444;28;20049;-36
2021/06/04 09:13:31;;;;;;;20.15;6.85;;;;;;;;;;5019591;28;20037;-36
2021/06/04 09:16:23;;;;;;;11.32;7.47;;;;;;;;;;5017770;28;20041;-35
2021/06/04 09:18:54;;;;;;;16.30;8.50;;;;;;;;;;5018987;28;20717;-35
2021/06/04 09:21:33;;;;;;;10.15;6.90;;;;;;;;;;5004292;28;20037;-35
2021/06/04 09:24:00;;;;;;;19.05;6.93;;;;;;;;;;5020134;28;20033;-36
2021/06/04 09:26:27;;;;;;;17.67;6.95;;;;;;;;;;5018622;28;20022;-36
2021/06/04 09:29:02;;;;;;;12.38;6.47;;;;;;;;;;5021319;28;20080;-35
2021/06/04 09:31:43;;;;;;;7.93;6.53;;;;;;;;;;5019539;28;20045;-34
2021/06/04 09:34:13;;;;;;;12.50;7.60;;;;;;;;;;5018992;28;20037;-39
2021/06/04 09:36:45;;;;;;;12.70;7.60;;;;;;;;;;5020904;28;20037;-34
2021/06/04 09:39:20;;;;;;;7.38;5.97;;;;;;;;;;5015647;28;20033;-45
2021/06/04 09:41:46;;;;;;;16.23;7.82;;;;;;;;;;5018781;28;20077;-46
2021/06/04 09:44:18;;;;;;;10.88;5.97;;;;;;;;;;5018425;28;20033;-46
2021/06/04 09:46:43;;;;;;;10.63;7.97;;;;;;;;;;5017937;28;20045;-46
2021/06/04 09:49:08;;;;;;;10.10;6.57;;;;;;;;;;5019504;28;20033;-46
2021/06/04 09:51:35;;;;;;;34.25;11.82;;;;;;;;;;5021889;28;20025;-43
2021/06/04 09:54:19;;;;;;;7.78;6.72;;;;;;;;;;5022163;28;20026;-45
2021/06/04 09:56:45;;;;;;;8.70;4.90;;;;;;;;;;5017216;28;20029;-44
2021/06/04 09:59:12;;;;;;;7.80;4.97;;;;;;;;;;5018423;28;20046;-44
2021/06/04 10:01:45;;;;;;;30.70;9.43;;;;;;;;;;5016073;28;20511;-44
2021/06/04 10:04:31;;;;;;;16.67;8.43;;;;;;;;;;5018566;28;20045;-45
2021/06/04 10:07:26;;;;;;;14.88;5.97;;;;;;;;;;5015698;28;20068;-44
2021/06/04 10:09:51;;;;;;;13.50;5.75;;;;;;;;;;5016579;28;20084;-44
2021/06/04 10:12:18;;;;;;;8.32;5.28;;;;;;;;;;4999278;28;20037;-44
2021/06/04 10:14:55;;;;;;;12.18;5.38;;;;;;;;;;5013534;28;20060;-44
2021/06/04 10:20:38;;;;;;;18.92;13.20;;;;;;;;;;5012495;28;20021;-43
2021/06/04 10:23:04;;;;;;;15.77;6.65;;;;;;;;;;4990856;28;20132;-44
2021/06/04 10:25:35;;;;;;;9.27;5.28;;;;;;;;;;5019397;28;20033;-44
2021/06/04 10:28:01;;;;;;;8.70;5.75;;;;;;;;;;5016799;28;20038;-45
2021/06/04 10:30:29;;;;;;;17.77;6.75;;;;;;;;;;5015042;28;20041;-44
2021/06/04 10:33:04;;;;;;;7.97;5.80;;;;;;;;;;5012119;28;20037;-45
2021/06/04 10:35:38;;;;;;;10.48;6.72;;;;;;;;;;5014447;28;20030;-45
2021/06/04 10:38:03;;;;;;;21.65;7.43;;;;;;;;;;5010954;28;20493;-44
2021/06/04 10:40:31;;;;;;;18.70;8.05;;;;;;;;;;5014581;28;20056;-44
2021/06/04 10:43:09;;;;;;;9.32;5.07;;;;;;;;;;5014851;28;20060;-46
2021/06/04 10:45:39;;;;;;;13.48;6.45;;;;;;;;;;5014671;28;20116;-44
2021/06/04 10:48:27;;;;;;;13.07;7.38;;;;;;;;;;5014204;28;20505;-45
2021/06/04 10:51:11;;;;;;;16.33;5.25;;;;;;;;;;5011974;28;20045;-44
2021/06/04 10:53:42;;;;;;;8.70;6.32;;;;;;;;;;5014663;28;20033;-44
2021/06/04 10:56:12;;;;;;;12.20;6.32;;;;;;;;;;5014578;28;20029;-44
2021/06/04 10:58:44;;;;;;;12.30;4.38;;;;;;;;;;5014205;28;20541;-44
2021/06/04 11:01:12;;;;;;;5.93;3.17;;;;;;;;;;5013428;28;20048;-44
2021/06/04 11:03:43;;;;;;;13.43;5.45;;;;;;;;;;5012827;28;20215;-44
2021/06/04 11:06:27;;;;;;;8.77;4.32;;;;;;;;;;5017325;28;20049;-43
2021/06/04 11:08:58;;;;;;;35.13;23.92;;;;;;;;;;5016834;28;20022;-44
2021/06/04 11:11:28;;;;;;;28.05;8.75;;;;;;;;;;4997950;28;20096;-44
2021/06/04 11:14:12;;;;;;;6.55;4.20;;;;;;;;;;5014149;28;20034;-44
2021/06/04 11:16:38;;;;;;;11.55;6.97;;;;;;;;;;5013079;28;20038;-44
2021/06/04 11:19:03;;;;;;;14.40;4.93;;;;;;;;;;5015492;28;20124;-44
2021/06/04 11:21:41;;;;;;;11.52;6.68;;;;;;;;;;5012595;28;20030;-44
2021/06/04 11:24:11;;;;;;;12.57;6.93;;;;;;;;;;5014455;28;20085;-43
2021/06/04 11:26:36;;;;;;;10.13;4.97;;;;;;;;;;5017972;28;20112;-44
2021/06/04 11:29:21;;;;;;;14.73;9.98;;;;;;;;;;5016747;28;20144;-44
2021/06/04 11:31:50;;;;;;;10.07;6.13;;;;;;;;;;5020743;28;20117;-46
2021/06/04 11:34:22;;;;;;;36.45;6.78;;;;;;;;;;5016482;28;20026;-46
2021/06/04 11:36:48;;;;;;;16.48;3.55;;;;;;;;;;5018116;28;20516;-44
2021/06/04 11:39:31;;;;;;;18.92;6.05;;;;;;;;;;5019412;28;20053;-45
2021/06/04 11:41:59;;;;;;;15.48;10.07;;;;;;;;;;5017862;28;20092;-45
2021/06/04 11:44:24;;;;;;;19.75;7.38;;;;;;;;;;5017279;28;20026;-51
2021/06/04 11:47:07;;;;;;;13.70;6.20;;;;;;;;;;5016601;28;20099;-44
2021/06/04 11:49:53;;;;;;;33.22;7.72;;;;;;;;;;5017771;28;20034;-43
2021/06/04 11:52:30;;;;;;;21.55;7.28;;;;;;;;;;4994808;28;20041;-53
2021/06/04 11:55:08;;;;;;;8.95;6.18;;;;;;;;;;5019625;28;20133;-43
2021/06/04 11:57:44;;;;;;;14.95;5.82;;;;;;;;;;5021489;28;20056;-35
2021/06/04 12:00:25;;;;;;;18.75;10.98;;;;;;;;;;5015655;28;20037;-42
2021/06/04 12:02:54;;;;;;;17.27;8.52;;;;;;;;;;5016359;28;20042;-35
2021/06/04 12:05:19;;;;;;;18.42;9.55;;;;;;;;;;5015957;28;20105;-35
2021/06/04 12:07:46;;;;;;;8.15;5.43;;;;;;;;;;5016656;28;20590;-35
2021/06/04 12:10:13;;;;;;;12.35;6.57;;;;;;;;;;5011896;28;20120;-35
2021/06/04 12:12:51;;;;;;;19.83;6.53;;;;;;;;;;5016229;28;20415;-35
2021/06/04 12:15:16;;;;;;;11.88;6.13;;;;;;;;;;5018393;28;20030;-35
2021/06/04 12:17:42;;;;;;;7.68;4.47;;;;;;;;;;5016846;28;20045;-35
2021/06/04 12:20:22;;;;;;;8.57;5.18;;;;;;;;;;5017050;28;20037;-35
2021/06/04 12:22:55;;;;;;;6.95;4.53;;;;;;;;;;5014820;28;20030;-35
2021/06/04 12:25:53;;;;;;;14.52;7.03;;;;;;;;;;5015185;28;20026;-36
2021/06/04 12:28:18;;;;;;;13.77;7.57;;;;;;;;;;5005423;28;20037;-35
2021/06/04 12:30:55;;;;;;;10.55;5.78;;;;;;;;;;5017574;28;20046;-35
2021/06/04 12:33:51;;;;;;;7.13;5.80;;;;;;;;;;5016444;28;20275;-35
2021/06/04 12:36:31;;;;;;;9.65;5.72;;;;;;;;;;5013273;28;20049;-36
2021/06/04 12:39:15;;;;;;;21.45;6.82;;;;;;;;;;5019015;28;20038;-35
2021/06/04 12:41:41;;;;;;;6.90;5.57;;;;;;;;;;5018146;28;20040;-36
2021/06/04 12:44:07;;;;;;;18.65;6.85;;;;;;;;;;5019098;28;20038;-35
2021/06/04 12:46:34;;;;;;;5.25;4.30;;;;;;;;;;5021045;28;20033;-36
2021/06/04 12:49:06;;;;;;;21.48;7.55;;;;;;;;;;5020295;28;20032;-35
2021/06/04 12:51:31;;;;;;;10.77;6.18;;;;;;;;;;5040039;28;20105;-35
2021/06/04 12:54:04;;;;;;;15.07;6.05;;;;;;;;;;5018441;28;20083;-35
2021/06/04 12:56:39;;;;;;;10.07;6.07;;;;;;;;;;5023174;28;20088;-35
2021/06/04 12:59:13;;;;;;;14.98;6.97;;;;;;;;;;5023974;28;20116;-35
2021/06/04 13:01:57;;;;;;;7.57;4.30;;;;;;;;;;5020604;28;20041;-35
2021/06/04 13:04:24;;;;;;;17.90;7.32;;;;;;;;;;5022477;28;20073;-35
2021/06/04 13:06:52;;;;;;;10.20;6.15;;;;;;;;;;5020564;28;20036;-35
2021/06/04 13:09:37;;;;;;;16.00;5.72;;;;;;;;;;5019041;28;20573;-35
2021/06/04 13:12:19;;;;;;;13.05;9.27;;;;;;;;;;5021715;28;20037;-35
2021/06/04 13:14:46;;;;;;;12.15;7.15;;;;;;;;;;5018812;28;20091;-35
2021/06/04 13:17:16;;;;;;;20.65;7.68;;;;;;;;;;5021220;28;20033;-35
2021/06/04 13:19:42;;;;;;;13.35;6.00;;;;;;;;;;5020187;28;20491;-36
2021/06/04 13:22:22;;;;;;;6.47;3.47;;;;;;;;;;5023358;28;20049;-35
2021/06/04 13:24:51;;;;;;;5.97;2.70;;;;;;;;;;5022538;28;20109;-35
2021/06/04 13:27:19;;;;;;;15.35;6.40;;;;;;;;;;5022747;28;20112;-35
2021/06/04 13:29:52;;;;;;;11.05;6.72;;;;;;;;;;5023144;28;20025;-35
2021/06/04 13:32:20;;;;;;;7.10;4.57;;;;;;;;;;5023243;28;20073;-36
2021/06/04 13:34:45;;;;;;;11.23;5.07;;;;;;;;;;5022272;28;20030;-35
2021/06/04 13:37:12;;;;;;;11.93;5.43;;;;;;;;;;5022673;28;20029;-35
2021/06/04 13:39:38;;;;;;;9.35;5.78;;;;;;;;;;5021621;28;20059;-35
2021/06/04 13:42:11;;;;;;;5.25;4.13;;;;;;;;;;5022694;28;20030;-36
2021/06/04 13:44:36;;;;;;;13.27;6.90;;;;;;;;;;5024225;28;20029;-35
2021/06/04 13:47:03;;;;;;;12.63;7.40;;;;;;;;;;5022723;28;20033;-35
2021/06/04 13:49:32;;;;;;;14.27;6.80;;;;;;;;;;5024180;28;20034;-35
2021/06/04 13:52:02;;;;;;;13.13;6.72;;;;;;;;;;5022488;28;20021;-35
2021/06/04 13:54:31;;;;;;;15.85;6.65;;;;;;;;;;5022321;28;20030;-36
2021/06/04 13:57:09;;;;;;;12.60;7.50;;;;;;;;;;5020675;28;20453;-36
2021/06/04 13:59:34;;;;;;;7.88;6.22;;;;;;;;;;5023516;28;20064;-35
2021/06/04 14:02:18;;;;;;;3.75;3.42;;;;;;;;;;5023007;28;20470;-35
2021/06/04 14:04:45;;;;;;;15.77;7.63;;;;;;;;;;5035817;28;20034;-35
2021/06/04 14:07:25;;;;;;;11.73;6.30;;;;;;;;;;5021801;28;20108;-35
2021/06/04 14:10:10;;;;;;;13.35;5.25;;;;;;;;;;5021849;28;20083;-35
2021/06/04 14:12:35;;;;;;;15.60;7.60;;;;;;;;;;5019976;28;20056;-35
2021/06/04 14:15:20;;;;;;;7.75;4.32;;;;;;;;;;5022287;28;20025;-35
2021/06/04 14:17:46;;;;;;;12.88;5.43;;;;;;;;;;5021160;28;20119;-35
2021/06/04 14:20:12;;;;;;;11.27;6.25;;;;;;;;;;5021996;28;20430;-35
2021/06/04 14:22:42;;;;;;;20.70;7.97;;;;;;;;;;5021980;28;20386;-35
2021/06/04 14:25:14;;;;;;;22.50;8.37;;;;;;;;;;5022944;28;20558;-36
2021/06/04 14:27:39;;;;;;;22.80;7.75;;;;;;;;;;5017572;28;20033;-35
2021/06/04 14:30:19;;;;;;;12.38;5.40;;;;;;;;;;5022537;28;20474;-35
2021/06/04 14:32:58;;;;;;;10.93;6.50;;;;;;;;;;5022107;28;20034;-36
2021/06/04 14:35:25;;;;;;;12.85;5.82;;;;;;;;;;5021722;28;20239;-35
2021/06/04 14:37:58;;;;;;;16.52;8.23;;;;;;;;;;5019748;28;20502;-35
2021/06/04 14:40:30;;;;;;;24.42;9.27;;;;;;;;;;5019211;28;20048;-36
2021/06/04 14:42:55;;;;;;;12.05;7.47;;;;;;;;;;5017950;28;20026;-35
2021/06/04 14:45:21;;;;;;;17.48;8.88;;;;;;;;;;5016615;28;20083;-35
2021/06/04 14:47:47;;;;;;;13.48;7.20;;;;;;;;;;5016914;28;20037;-35